Time;durP1;ratioP1;P1;durP2;ratioP2;P2;SDS_P1;SDS_P2;PMS_P1;PMS_P2;Temp;Humidity;BMP_temperature;BMP_pressure;BME280_temperature;BME280_humidity;BME280_pressure;Samples;Min_cycle;Max_cycle;Signal;HPM_P1;HPM_P2
2021/09/16 00:00:47;;;;;;;14.00;9.85;;;;;;;24.17;46.89;101768.42;1768913;80;21002;-47
2021/09/16 00:03:13;;;;;;;20.23;9.58;;;;;;;24.14;46.95;101765.97;1769104;80;21056;-49
2021/09/16 00:05:40;;;;;;;11.93;9.45;;;;;;;24.11;47.06;101770.63;1768990;80;21518;-49
2021/09/16 00:08:06;;;;;;;15.78;9.40;;;;;;;24.08;47.17;101773.00;1766701;80;21446;-46
2021/09/16 00:10:35;;;;;;;16.02;9.63;;;;;;;24.06;47.41;101770.91;1767517;80;21017;-48
2021/09/16 00:13:02;;;;;;;14.53;9.40;;;;;;;24.04;47.62;101771.48;1767787;80;20990;-47
2021/09/16 00:15:30;;;;;;;18.05;9.38;;;;;;;24.04;47.81;101766.63;1767005;80;21506;-51
2021/09/16 00:17:57;;;;;;;12.47;8.80;;;;;;;24.03;47.89;101768.86;1766176;80;21029;-46
2021/09/16 00:20:25;;;;;;;12.75;9.53;;;;;;;24.01;48.23;101770.29;1765692;80;21010;-47
2021/09/16 00:22:52;;;;;;;14.18;9.08;;;;;;;23.99;48.53;101766.88;1767712;80;20978;-50
2021/09/16 00:25:20;;;;;;;13.25;8.80;;;;;;;23.97;48.64;101771.43;1768679;80;21528;-52
2021/09/16 00:27:47;;;;;;;14.70;9.60;;;;;;;23.99;48.70;101772.19;1769455;80;20990;-49
2021/09/16 00:30:14;;;;;;;12.15;8.00;;;;;;;23.98;48.71;101765.18;1769000;80;21015;-47
2021/09/16 00:32:40;;;;;;;12.00;7.97;;;;;;;23.99;48.64;101768.20;1774474;80;21506;-46
2021/09/16 00:35:09;;;;;;;10.43;8.05;;;;;;;23.99;48.69;101762.88;1772495;80;20974;-48
2021/09/16 00:37:36;;;;;;;16.32;8.35;;;;;;;24.00;48.67;101761.95;1769324;80;21021;-52
2021/09/16 00:40:06;;;;;;;12.23;8.80;;;;;;;24.00;48.75;101770.39;1768581;80;21010;-47
2021/09/16 00:42:33;;;;;;;11.68;8.33;;;;;;;23.99;48.85;101764.22;1769635;80;21514;-52
2021/09/16 00:44:59;;;;;;;14.47;8.73;;;;;;;23.97;49.08;101763.45;1771037;80;21088;-48
2021/09/16 00:47:26;;;;;;;12.95;8.05;;;;;;;23.95;49.36;101765.35;1771563;80;20978;-47
2021/09/16 00:49:53;;;;;;;12.23;9.03;;;;;;;23.93;49.61;101769.05;1773237;80;21033;-49
2021/09/16 00:52:20;;;;;;;16.20;7.85;;;;;;;23.91;49.91;101758.52;1774099;80;20986;-49
2021/09/16 00:54:46;;;;;;;14.83;9.23;;;;;;;23.92;50.32;101761.57;1784975;80;21457;-49
2021/09/16 00:57:16;;;;;;;17.52;8.13;;;;;;;23.90;50.53;101755.50;1770753;80;21022;-50
2021/09/16 00:59:45;;;;;;;11.75;7.22;;;;;;;23.89;50.71;101752.44;1773154;80;20989;-52
2021/09/16 01:02:12;;;;;;;12.68;7.47;;;;;;;23.90;50.93;101754.16;1773538;80;20971;-47
2021/09/16 01:04:39;;;;;;;13.43;7.17;;;;;;;23.91;51.08;101753.20;1772476;80;21486;-46
2021/09/16 01:07:08;;;;;;;15.15;7.40;;;;;;;23.93;51.17;101756.62;1771070;80;21005;-49
2021/09/16 01:09:36;;;;;;;13.95;7.15;;;;;;;23.93;51.18;101751.30;1771209;80;21041;-52
2021/09/16 01:12:06;;;;;;;11.78;8.08;;;;;;;23.94;51.31;101750.37;1772093;80;21012;-48
2021/09/16 01:14:34;;;;;;;15.48;7.70;;;;;;;23.95;51.42;101752.53;1774318;80;21505;-52
2021/09/16 01:17:03;;;;;;;18.57;7.10;;;;;;;23.97;51.40;101747.97;1774244;80;21032;-47
2021/09/16 01:19:30;;;;;;;12.03;7.65;;;;;;;23.98;51.42;101751.89;1774702;80;21482;-49
2021/09/16 01:21:58;;;;;;;10.53;7.00;;;;;;;23.99;51.51;101746.93;1774187;80;21006;-48
2021/09/16 01:24:25;;;;;;;19.73;7.70;;;;;;;24.00;51.54;101751.78;1774348;80;21510;-52
2021/09/16 01:26:51;;;;;;;13.65;7.08;;;;;;;24.01;51.55;101749.02;1736454;80;21053;-50
2021/09/16 01:29:19;;;;;;;13.78;6.47;;;;;;;24.01;51.59;101747.69;1771388;80;20986;-46
2021/09/16 01:31:49;;;;;;;13.00;6.83;;;;;;;24.01;51.66;101747.69;1772136;80;20978;-47
2021/09/16 01:34:17;;;;;;;9.90;6.53;;;;;;;24.01;51.77;101746.36;1774563;80;21004;-48
2021/09/16 01:36:45;;;;;;;13.80;7.05;;;;;;;24.02;51.82;101744.09;1779345;80;21021;-50
2021/09/16 01:39:16;;;;;;;9.90;6.50;;;;;;;24.02;51.87;101749.41;1777331;80;21051;-51
2021/09/16 01:41:42;;;;;;;13.10;6.97;;;;;;;24.01;51.98;101751.68;1770695;80;21057;-50
2021/09/16 01:44:09;;;;;;;9.88;6.47;;;;;;;24.02;52.09;101742.77;1770791;80;21076;-47
2021/09/16 01:46:36;;;;;;;11.15;6.97;;;;;;;24.01;52.19;101741.05;1765396;80;21025;-48
2021/09/16 01:49:04;;;;;;;10.58;7.03;;;;;;;24.02;52.34;101744.09;1778856;80;21494;-49
2021/09/16 01:51:33;;;;;;;13.53;6.55;;;;;;;24.00;52.54;101743.34;1771330;80;20993;-47
2021/09/16 01:54:00;;;;;;;12.13;6.80;;;;;;;24.00;52.70;101742.01;1772880;80;21087;-49
2021/09/16 01:56:26;;;;;;;9.58;6.55;;;;;;;24.02;52.85;101751.22;1773644;80;20989;-48
2021/09/16 01:58:54;;;;;;;13.80;7.10;;;;;;;24.01;52.89;101741.05;1772975;80;21049;-48
2021/09/16 02:01:21;;;;;;;13.13;7.33;;;;;;;24.03;53.03;101743.59;1772908;80;20986;-48
2021/09/16 02:03:48;;;;;;;13.85;7.87;;;;;;;24.02;53.16;101737.45;1771460;80;20982;-48
2021/09/16 02:06:15;;;;;;;11.05;7.22;;;;;;;24.02;53.25;101740.11;1770151;80;22337;-51
2021/09/16 02:08:41;;;;;;;11.33;6.87;;;;;;;24.03;53.40;101737.84;1770354;80;21002;-48
2021/09/16 02:11:09;;;;;;;11.63;7.10;;;;;;;24.02;53.59;101732.14;1778617;80;20994;-51
2021/09/16 02:13:36;;;;;;;13.48;7.03;;;;;;;23.99;53.84;101734.97;1771233;80;21014;-51
2021/09/16 02:16:04;;;;;;;10.93;7.15;;;;;;;24.02;53.93;101746.76;1770799;80;20969;-51
2021/09/16 02:18:31;;;;;;;9.35;6.08;;;;;;;24.03;54.06;101739.18;1770015;80;20989;-47
2021/09/16 02:20:57;;;;;;;11.75;6.03;;;;;;;24.03;54.09;101738.28;1770636;80;21044;-47
2021/09/16 02:23:24;;;;;;;6.60;5.17;;;;;;;24.01;54.13;101743.70;1772875;80;21009;-51
2021/09/16 02:25:51;;;;;;;9.80;5.53;;;;;;;24.02;54.19;101747.23;1772879;80;21469;-52
2021/09/16 02:28:18;;;;;;;7.95;5.40;;;;;;;24.02;54.21;101753.41;1772864;80;21548;-47
2021/09/16 02:30:47;;;;;;;10.45;5.00;;;;;;;24.01;54.29;101749.02;1773094;80;21000;-48
2021/09/16 02:33:13;;;;;;;7.30;4.53;;;;;;;23.95;54.42;101753.39;1775109;80;21045;-47
2021/09/16 02:35:40;;;;;;;12.03;4.95;;;;;;;23.98;54.49;101753.22;1771496;80;21018;-50
2021/09/16 02:38:08;;;;;;;7.30;4.05;;;;;;;24.00;54.41;101747.33;1772355;80;21010;-47
2021/09/16 02:40:35;;;;;;;5.40;3.40;;;;;;;24.03;53.98;101745.83;1770311;80;21013;-50
2021/09/16 02:43:03;;;;;;;4.03;2.75;;;;;;;24.05;53.25;101742.59;1769847;80;21068;-49
2021/09/16 02:45:32;;;;;;;3.67;2.20;;;;;;;24.06;51.83;101739.00;1771934;80;21083;-47
2021/09/16 02:47:58;;;;;;;5.65;2.70;;;;;;;24.07;50.50;101734.55;1773029;80;21001;-47
2021/09/16 02:50:25;;;;;;;3.95;2.12;;;;;;;24.07;49.65;101735.37;1778106;80;21073;-48
2021/09/16 02:52:54;;;;;;;5.12;2.40;;;;;;;24.07;49.33;101740.70;1769853;80;21037;-49
2021/09/16 02:55:21;;;;;;;5.20;2.30;;;;;;;24.07;49.10;101743.35;1770488;80;21427;-47
2021/09/16 02:57:48;;;;;;;4.58;2.40;;;;;;;24.05;48.71;101743.92;1770647;80;20998;-53
2021/09/16 03:00:15;;;;;;;6.17;2.05;;;;;;;24.04;48.09;101742.70;1771013;80;20974;-48
2021/09/16 03:02:42;;;;;;;5.30;2.10;;;;;;;24.02;47.75;101748.09;1775717;80;21009;-46
2021/09/16 03:05:10;;;;;;;5.55;2.50;;;;;;;23.99;47.40;101745.60;1769032;80;21510;-48
2021/09/16 03:07:37;;;;;;;4.58;2.60;;;;;;;23.97;46.69;101754.15;1770780;80;20997;-51
2021/09/16 03:10:06;;;;;;;8.40;2.80;;;;;;;23.94;45.87;101753.03;1772567;80;21481;-46
2021/09/16 03:12:33;;;;;;;6.80;2.12;;;;;;;23.91;45.47;101750.54;1773448;80;20961;-49
2021/09/16 03:15:00;;;;;;;5.33;2.47;;;;;;;23.88;45.15;101753.41;1772548;80;21032;-50
2021/09/16 03:17:27;;;;;;;10.90;3.83;;;;;;;23.86;44.74;101755.30;1773271;80;21029;-48
2021/09/16 03:19:55;;;;;;;6.42;2.95;;;;;;;23.76;44.50;101755.95;1772618;80;21048;-46
2021/09/16 03:22:24;;;;;;;4.67;2.58;;;;;;;23.80;44.52;101758.30;1770457;80;21478;-50
2021/09/16 03:24:50;;;;;;;6.33;3.02;;;;;;;23.79;44.54;101757.94;1772928;80;21002;-50
2021/09/16 03:27:18;;;;;;;7.05;2.55;;;;;;;23.77;44.56;101758.51;1771555;80;21022;-51
2021/09/16 03:29:46;;;;;;;4.00;2.47;;;;;;;23.56;45.05;101751.82;1772153;80;21439;-50
2021/09/16 03:32:13;;;;;;;5.92;2.70;;;;;;;23.52;45.40;101750.30;1770168;80;21057;-47
2021/09/16 03:34:40;;;;;;;7.10;3.33;;;;;;;23.61;44.97;101757.73;1770663;80;21045;-49
2021/09/16 03:37:07;;;;;;;9.85;2.75;;;;;;;23.74;44.90;101760.50;1766447;80;21006;-47
2021/09/16 03:39:33;;;;;;;5.40;2.90;;;;;;;23.75;44.67;101766.19;1773299;80;20952;-51
2021/09/16 03:42:00;;;;;;;5.37;3.17;;;;;;;23.75;44.48;101764.86;1773014;80;21020;-52
2021/09/16 03:44:27;;;;;;;3.67;2.60;;;;;;;23.76;44.16;101770.06;1770717;80;21136;-49
2021/09/16 03:46:54;;;;;;;6.87;3.37;;;;;;;23.77;44.32;101774.45;1768487;80;21501;-46
2021/09/16 03:49:21;;;;;;;9.08;3.20;;;;;;;23.79;44.17;101771.23;1765871;80;20970;-49
2021/09/16 03:51:48;;;;;;;6.35;2.87;;;;;;;23.79;44.02;101776.55;1765955;80;21014;-48
2021/09/16 03:54:14;;;;;;;8.43;2.98;;;;;;;23.81;43.85;101780.43;1768326;80;21109;-51
2021/09/16 03:56:41;;;;;;;6.47;2.72;;;;;;;23.82;43.45;101779.50;1767151;80;21042;-54
2021/09/16 03:59:09;;;;;;;7.80;2.98;;;;;;;23.84;43.03;101781.12;1769073;80;21041;-48
2021/09/16 04:01:39;;;;;;;6.58;2.60;;;;;;;23.84;42.60;101784.25;1765457;80;21021;-48
2021/09/16 04:04:07;;;;;;;8.08;2.30;;;;;;;23.86;42.39;101779.22;1777371;80;21063;-52
2021/09/16 04:06:34;;;;;;;4.20;2.90;;;;;;;23.87;42.03;101782.72;1768233;80;21021;-51
2021/09/16 04:09:03;;;;;;;8.00;2.72;;;;;;;23.87;41.31;101782.25;1765601;80;21010;-48
2021/09/16 04:11:29;;;;;;;9.28;2.70;;;;;;;23.88;40.57;101787.96;1765849;80;21668;-52
2021/09/16 04:13:57;;;;;;;5.50;2.40;;;;;;;23.89;40.44;101785.67;1767897;80;21026;-53
2021/09/16 04:16:23;;;;;;;3.72;2.42;;;;;;;23.91;40.16;101789.09;1767922;80;21037;-48
2021/09/16 04:18:51;;;;;;;5.30;2.70;;;;;;;23.93;40.24;101788.52;1766776;80;20999;-48
2021/09/16 04:21:18;;;;;;;8.78;3.10;;;;;;;23.93;40.12;101795.16;1765669;80;21001;-49
2021/09/16 04:23:45;;;;;;;7.17;2.98;;;;;;;23.84;39.98;101795.74;1765826;80;21033;-51
2021/09/16 04:26:14;;;;;;;6.00;3.50;;;;;;;23.95;39.87;101797.72;1779469;80;21057;-48
2021/09/16 04:28:41;;;;;;;5.78;2.65;;;;;;;23.93;40.03;101793.84;1765847;80;20994;-50
2021/09/16 04:31:08;;;;;;;6.20;3.00;;;;;;;23.95;39.80;101791.08;1765925;80;21502;-50
2021/09/16 04:33:35;;;;;;;5.28;2.25;;;;;;;23.96;39.63;101792.34;1768212;80;21487;-51
2021/09/16 04:36:01;;;;;;;5.30;2.70;;;;;;;23.98;39.62;101797.08;1767228;80;21081;-47
2021/09/16 04:38:29;;;;;;;4.28;2.37;;;;;;;24.01;39.04;101798.20;1769132;80;21077;-50
2021/09/16 04:40:55;;;;;;;9.68;2.55;;;;;;;24.02;38.67;101801.27;1765959;80;21450;-50
2021/09/16 04:43:22;;;;;;;5.87;2.02;;;;;;;24.04;38.88;101811.36;1765969;80;21110;-49
2021/09/16 04:45:48;;;;;;;10.58;2.37;;;;;;;24.05;39.41;101805.58;1762265;80;21037;-48
2021/09/16 04:48:16;;;;;;;7.87;2.52;;;;;;;24.05;38.84;101803.75;1769344;80;21029;-51
2021/09/16 04:50:42;;;;;;;2.42;2.10;;;;;;;24.06;37.54;101806.81;1768840;80;21005;-51
2021/09/16 04:53:09;;;;;;;6.47;2.30;;;;;;;24.08;37.07;101806.70;1769194;80;21062;-49
2021/09/16 04:55:36;;;;;;;7.37;1.90;;;;;;;24.08;36.95;101808.89;1768700;80;21507;-50
2021/09/16 04:58:03;;;;;;;7.33;1.87;;;;;;;24.10;37.09;101805.67;1765836;80;21001;-48
2021/09/16 05:00:30;;;;;;;10.18;2.20;;;;;;;24.10;37.38;101803.01;1765851;80;21034;-52
2021/09/16 05:02:57;;;;;;;4.37;2.08;;;;;;;24.13;37.61;101812.61;1767160;80;21475;-48
2021/09/16 05:05:24;;;;;;;11.12;2.35;;;;;;;24.14;37.91;101810.31;1767836;80;21006;-49
2021/09/16 05:07:51;;;;;;;6.90;1.80;;;;;;;24.15;37.82;101809.37;1766727;80;21062;-51
2021/09/16 05:10:18;;;;;;;6.90;1.80;;;;;;;24.15;37.75;101803.56;1765852;80;21065;-50
2021/09/16 05:12:46;;;;;;;4.47;2.67;;;;;;;24.17;37.51;101813.63;1765625;80;20997;-52
2021/09/16 05:15:15;;;;;;;11.70;2.60;;;;;;;24.17;37.45;101808.31;1767210;80;21037;-48
2021/09/16 05:17:43;;;;;;;3.58;2.05;;;;;;;24.19;37.36;101807.74;1768806;80;21481;-48
2021/09/16 05:20:12;;;;;;;8.85;2.72;;;;;;;24.20;37.32;101806.81;1769358;80;21030;-48
2021/09/16 05:22:40;;;;;;;6.62;2.77;;;;;;;24.24;37.49;101810.98;1768684;80;21525;-49
2021/09/16 05:25:08;;;;;;;8.48;2.72;;;;;;;24.27;37.04;101807.75;1769694;80;21002;-50
2021/09/16 05:27:35;;;;;;;6.97;2.98;;;;;;;24.30;37.00;101810.24;1768353;80;21573;-53
2021/09/16 05:30:02;;;;;;;6.92;3.02;;;;;;;24.37;37.67;101807.56;1765896;80;20988;-50
2021/09/16 05:32:28;;;;;;;4.53;2.58;;;;;;;24.43;38.10;101808.50;1765851;80;21013;-48
2021/09/16 05:34:55;;;;;;;12.98;3.30;;;;;;;24.50;38.41;101805.85;1768120;80;21640;-47
2021/09/16 05:37:24;;;;;;;12.15;3.10;;;;;;;24.55;38.96;101802.41;1781408;80;21490;-48
2021/09/16 05:39:52;;;;;;;8.25;3.37;;;;;;;24.62;39.25;101809.06;1766923;80;20958;-51
2021/09/16 05:42:18;;;;;;;15.85;3.40;;;;;;;24.66;38.59;101813.23;1765635;80;21005;-47
2021/09/16 05:44:45;;;;;;;6.95;2.98;;;;;;;24.71;38.71;101821.80;1765702;80;21021;-47
2021/09/16 05:47:13;;;;;;;8.05;3.17;;;;;;;24.74;38.51;101823.81;1782637;80;21029;-50
2021/09/16 05:49:39;;;;;;;11.05;3.37;;;;;;;24.77;38.36;101822.77;1766766;80;21563;-51
2021/09/16 05:52:07;;;;;;;6.20;2.87;;;;;;;24.78;38.01;101821.33;1765363;80;21021;-48
2021/09/16 05:54:34;;;;;;;5.42;2.65;;;;;;;24.80;38.12;101825.22;1765701;80;21266;-47
2021/09/16 05:57:00;;;;;;;12.30;2.60;;;;;;;24.83;37.78;101829.03;1767822;80;21047;-46
2021/09/16 05:59:26;;;;;;;8.30;2.45;;;;;;;24.84;37.25;101830.72;1768941;80;21029;-48
2021/09/16 06:01:53;;;;;;;7.00;2.70;;;;;;;24.85;36.93;101833.78;1769029;80;21013;-50
2021/09/16 06:04:20;;;;;;;3.98;2.15;;;;;;;24.88;36.17;101834.89;1768819;80;21010;-47
2021/09/16 06:06:47;;;;;;;4.80;2.15;;;;;;;24.90;35.17;101838.31;1771991;80;21545;-48
2021/09/16 06:09:15;;;;;;;6.75;2.17;;;;;;;24.93;35.11;101844.32;1778902;80;20986;-49
2021/09/16 06:11:44;;;;;;;5.40;2.67;;;;;;;24.98;34.97;101836.01;1765690;80;21006;-47
2021/09/16 06:14:11;;;;;;;9.45;2.75;;;;;;;25.03;34.92;101840.58;1766350;80;21088;-49
2021/09/16 06:16:37;;;;;;;5.20;2.12;;;;;;;25.11;35.03;101840.93;1769283;80;21549;-50
2021/09/16 06:19:04;;;;;;;7.55;2.17;;;;;;;25.16;34.43;101840.17;1767031;80;21031;-51
2021/09/16 06:21:31;;;;;;;12.73;2.30;;;;;;;25.21;33.99;101846.03;1766460;80;20989;-47
2021/09/16 06:23:58;;;;;;;7.03;2.00;;;;;;;25.26;33.81;101843.94;1765644;80;21463;-49
2021/09/16 06:26:25;;;;;;;4.50;2.42;;;;;;;25.31;33.64;101851.13;1783589;80;21049;-49
2021/09/16 06:28:52;;;;;;;9.03;1.98;;;;;;;25.37;33.80;101852.05;1769322;80;21517;-47
2021/09/16 06:31:19;;;;;;;6.85;2.05;;;;;;;25.41;33.79;101853.59;1776086;80;21057;-47
2021/09/16 06:33:46;;;;;;;9.20;2.33;;;;;;;25.47;33.52;101855.84;1776490;80;21037;-47
2021/09/16 06:36:12;;;;;;;6.62;2.27;;;;;;;25.51;33.93;101857.35;1769013;80;20962;-49
2021/09/16 06:38:40;;;;;;;3.17;1.92;;;;;;;25.52;34.34;101849.75;1767760;80;21014;-48
2021/09/16 06:41:07;;;;;;;6.40;1.98;;;;;;;25.54;34.49;101855.83;1765666;80;21033;-47
2021/09/16 06:43:35;;;;;;;134.63;9.80;;;;;;;25.56;34.84;101847.25;1765646;80;21005;-47
2021/09/16 06:46:02;;;;;;;44.20;4.35;;;;;;;25.58;34.71;101857.33;1767482;80;21128;-48
2021/09/16 06:48:29;;;;;;;11.83;2.40;;;;;;;25.57;34.54;101854.30;1767146;80;21100;-47
2021/09/16 06:50:56;;;;;;;7.92;2.05;;;;;;;25.58;34.75;101853.33;1776942;80;21490;-50
2021/09/16 06:53:23;;;;;;;10.82;2.25;;;;;;;25.58;34.74;101856.00;1764910;80;21010;-50
2021/09/16 06:55:50;;;;;;;5.20;2.25;;;;;;;25.56;34.21;101856.58;1765954;80;20974;-48
2021/09/16 06:58:18;;;;;;;9.18;2.42;;;;;;;25.54;34.44;101858.50;1767822;80;21076;-48
2021/09/16 07:00:46;;;;;;;11.53;3.15;;;;;;;25.51;34.34;101864.02;1768487;80;21493;-49
2021/09/16 07:03:13;;;;;;;8.45;1.98;;;;;;;25.49;33.82;101867.26;1774665;80;21046;-49
2021/09/16 07:05:42;;;;;;;3.65;2.30;;;;;;;25.47;32.95;101867.84;1780456;80;21053;-48
2021/09/16 07:08:09;;;;;;;7.58;2.17;;;;;;;25.44;32.96;101869.39;1767043;80;21022;-49
2021/09/16 07:10:36;;;;;;;4.92;1.85;;;;;;;25.41;33.46;101874.91;1776989;80;21041;-49
2021/09/16 07:13:05;;;;;;;2.98;1.92;;;;;;;25.40;33.56;101879.84;1764998;80;21005;-49
2021/09/16 07:15:31;;;;;;;11.25;2.90;;;;;;;25.39;33.04;101876.78;1765439;80;21017;-48
2021/09/16 07:18:00;;;;;;;5.15;1.90;;;;;;;25.40;32.72;101870.52;1779195;80;21006;-49
2021/09/16 07:20:28;;;;;;;3.00;2.00;;;;;;;25.41;32.50;101873.58;1770947;80;20985;-47
2021/09/16 07:22:56;;;;;;;4.65;2.15;;;;;;;25.43;32.04;101867.67;1768981;80;21002;-48
2021/09/16 07:25:23;;;;;;;3.42;2.10;;;;;;;25.46;32.02;101871.48;1768834;80;21014;-47
2021/09/16 07:27:51;;;;;;;6.83;2.45;;;;;;;25.51;31.98;101878.67;1774383;80;21053;-49
2021/09/16 07:30:17;;;;;;;8.03;2.65;;;;;;;25.55;31.88;101874.02;1772659;80;20959;-48
2021/09/16 07:32:46;;;;;;;6.28;2.55;;;;;;;25.59;32.31;101883.05;1773393;80;21474;-49
2021/09/16 07:35:12;;;;;;;3.52;2.60;;;;;;;25.64;31.90;101875.58;1772276;80;20959;-47
2021/09/16 07:37:40;;;;;;;4.90;2.40;;;;;;;25.70;31.54;101881.83;1776374;80;20950;-49
2021/09/16 07:40:09;;;;;;;4.97;2.80;;;;;;;25.74;31.49;101887.33;1779282;80;21026;-47
2021/09/16 07:42:36;;;;;;;4.85;2.33;;;;;;;25.77;31.73;101881.81;1765901;80;21465;-46
2021/09/16 07:45:05;;;;;;;6.42;2.20;;;;;;;25.82;32.29;101883.67;1770095;80;21050;-46
2021/09/16 07:47:32;;;;;;;6.53;2.05;;;;;;;25.86;31.60;101875.48;1765410;80;21037;-45
2021/09/16 07:49:59;;;;;;;6.53;2.25;;;;;;;25.86;31.60;101875.48;1782858;80;20991;-51
2021/09/16 07:52:25;;;;;;;8.93;2.20;;;;;;;25.89;32.60;101887.25;1782966;80;21026;-48
2021/09/16 07:54:52;;;;;;;5.60;2.42;;;;;;;25.91;32.62;101886.67;1766607;80;21081;-45
2021/09/16 07:57:19;;;;;;;2.15;1.92;;;;;;;25.93;32.53;101891.42;1765777;80;21477;-46
2021/09/16 07:59:45;;;;;;;5.25;2.05;;;;;;;25.94;32.24;101890.47;1765887;80;21470;-50
2021/09/16 08:02:12;;;;;;;5.15;2.20;;;;;;;25.93;32.67;101883.41;1768510;80;20946;-47
2021/09/16 08:04:39;;;;;;;3.58;1.95;;;;;;;25.91;32.55;101882.66;1768701;80;21041;-46
2021/09/16 08:07:07;;;;;;;3.33;2.22;;;;;;;25.91;32.78;101880.00;1768831;80;21025;-49
2021/09/16 08:09:33;;;;;;;2.80;1.90;;;;;;;25.91;32.88;101880.00;1768758;80;21018;-52
2021/09/16 08:12:00;;;;;;;3.15;2.08;;;;;;;25.93;32.73;101882.08;1768511;80;21491;-51
2021/09/16 08:14:30;;;;;;;4.53;1.85;;;;;;;25.93;32.77;101881.61;1766473;80;20989;-49
2021/09/16 08:16:59;;;;;;;4.17;1.90;;;;;;;25.97;33.16;101887.58;1768905;80;21037;-45
2021/09/16 08:19:27;;;;;;;3.02;1.80;;;;;;;25.98;32.74;101882.64;1782355;80;21490;-48
2021/09/16 08:21:55;;;;;;;3.35;1.50;;;;;;;26.01;33.14;101882.44;1766692;80;20998;-49
2021/09/16 08:24:22;;;;;;;5.30;2.10;;;;;;;26.03;33.55;101884.02;1767430;80;21052;-47
2021/09/16 08:26:49;;;;;;;4.55;2.20;;;;;;;26.08;34.28;101883.75;1779735;80;21041;-47
2021/09/16 08:29:16;;;;;;;3.05;2.00;;;;;;;26.08;34.28;101883.75;1767477;80;20998;-46
2021/09/16 08:31:45;;;;;;;6.20;2.05;;;;;;;26.13;34.72;101885.13;1768308;80;21030;-48
2021/09/16 08:34:12;;;;;;;2.77;2.17;;;;;;;26.13;34.72;101885.13;1772785;80;21050;-49
2021/09/16 08:36:39;;;;;;;4.90;1.60;;;;;;;26.15;34.17;101890.38;1775144;80;20994;-48
2021/09/16 08:39:07;;;;;;;2.85;1.62;;;;;;;26.18;33.18;101887.02;1746759;80;21013;-51
2021/09/16 08:41:37;;;;;;;3.52;1.60;;;;;;;26.27;33.33;101890.87;1766840;80;21006;-49
2021/09/16 08:44:04;;;;;;;7.03;1.50;;;;;;;26.27;33.33;101890.87;1775071;80;21048;-49
2021/09/16 08:46:32;;;;;;;2.52;1.57;;;;;;;26.34;32.09;101881.45;1780404;80;21030;-48
2021/09/16 08:48:58;;;;;;;2.37;1.98;;;;;;;26.34;32.09;101881.45;1775818;80;21018;-48
2021/09/16 08:51:27;;;;;;;2.37;1.95;;;;;;;26.47;32.19;101886.32;1772803;80;21002;-46
2021/09/16 08:53:56;;;;;;;3.25;1.98;;;;;;;26.47;32.19;101886.32;1776571;80;21057;-51
2021/09/16 08:56:24;;;;;;;4.85;1.90;;;;;;;26.52;32.07;101884.20;1774775;80;21017;-51
2021/09/16 08:58:52;;;;;;;4.85;1.90;;;;;;;26.57;30.86;101879.37;1773530;80;21061;-50
2021/09/16 09:01:18;;;;;;;2.92;1.67;;;;;;;26.57;30.86;101879.37;1777114;80;21462;-48
2021/09/16 09:03:46;;;;;;;3.00;1.80;;;;;;;26.56;31.24;101881.68;1766731;80;21026;-49
2021/09/16 09:06:32;;;;;;;2.70;1.82;;;;;;;26.51;31.66;101885.14;1774856;80;20990;-51
2021/09/16 09:09:15;;;;;;;3.22;1.82;;;;;;;26.51;31.66;101885.14;1714143;84;21042;-47
2021/09/16 09:11:57;;;;;;;3.25;1.98;;;;;;;26.49;32.02;101886.59;1735627;82;22069;-49
2021/09/16 09:14:33;;;;;;;3.33;1.70;;;;;;;26.52;32.03;101880.19;1732827;82;21538;-46
2021/09/16 09:17:02;;;;;;;2.98;1.55;;;;;;;26.52;31.83;101878.86;1704128;83;21022;-47
2021/09/16 09:19:32;;;;;;;3.60;1.95;;;;;;;26.54;32.29;101879.09;1733499;82;21006;-47
2021/09/16 09:22:00;;;;;;;6.08;1.80;;;;;;;26.58;32.65;101879.25;1726715;82;21023;-46
2021/09/16 09:24:34;;;;;;;4.25;1.85;;;;;;;26.60;32.71;101881.84;1728586;82;21061;-46
2021/09/16 09:27:01;;;;;;;3.65;1.82;;;;;;;26.66;32.02;101880.06;1727719;82;21026;-48
2021/09/16 09:29:28;;;;;;;2.47;1.50;;;;;;;26.66;32.02;101880.06;1704340;83;21514;-50
2021/09/16 09:32:03;;;;;;;5.37;1.90;;;;;;;26.71;30.86;101881.08;1726663;82;21026;-47
2021/09/16 09:34:33;;;;;;;2.22;1.62;;;;;;;26.78;30.37;101883.70;1694943;84;21601;-49
2021/09/16 09:37:17;;;;;;;5.30;1.67;;;;;;;26.82;30.68;101882.04;1661825;86;21029;-47
2021/09/16 09:39:47;;;;;;;3.83;1.70;;;;;;;26.87;30.37;101885.25;1688384;84;21495;-47
2021/09/16 09:42:25;;;;;;;1.98;1.57;;;;;;;26.96;30.42;101884.56;1650093;86;21037;-49
2021/09/16 09:44:54;;;;;;;4.40;2.12;;;;;;;26.96;30.42;101884.56;1668334;85;21034;-48
2021/09/16 09:47:45;;;;;;;2.95;1.87;;;;;;;26.98;29.77;101885.30;1664584;85;21066;-47
2021/09/16 09:50:22;;;;;;;5.65;1.77;;;;;;;27.01;29.86;101884.23;1659661;85;20983;-50
2021/09/16 09:52:52;;;;;;;3.15;1.95;;;;;;;27.01;29.35;101882.42;1676148;85;21037;-47
2021/09/16 09:55:21;;;;;;;2.08;1.50;;;;;;;27.01;29.77;101877.09;1669676;85;21090;-49
2021/09/16 09:57:48;;;;;;;5.10;1.90;;;;;;;27.04;29.59;101882.19;1676578;85;21028;-49
2021/09/16 10:00:16;;;;;;;3.50;1.42;;;;;;;27.09;30.62;101881.86;1660242;85;21610;-50
2021/09/16 10:02:52;;;;;;;1.67;1.57;;;;;;;27.09;30.62;101881.86;1656171;85;20997;-51
2021/09/16 10:08:10;;;;;;;4.67;1.70;;;;;;;27.12;30.13;101889.16;1658712;85;20977;-50
2021/09/16 10:10:44;;;;;;;2.62;1.80;;;;;;;27.14;30.27;101883.22;1656508;85;21104;-51
2021/09/16 10:13:20;;;;;;;4.25;2.12;;;;;;;27.17;31.23;101883.01;1668339;85;21008;-50
2021/09/16 10:15:52;;;;;;;3.95;1.90;;;;;;;27.21;30.74;101880.95;1641057;85;21040;-49
2021/09/16 10:18:21;;;;;;;2.87;1.87;;;;;;;27.22;30.34;101882.17;1674878;85;21092;-49
2021/09/16 10:20:48;;;;;;;4.60;1.87;;;;;;;27.23;30.10;101879.02;1669807;85;21096;-50
2021/09/16 10:23:16;;;;;;;3.98;2.08;;;;;;;27.24;30.47;101881.58;1676090;85;21097;-48
2021/09/16 10:25:46;;;;;;;4.65;2.10;;;;;;;27.25;30.83;101883.30;1675833;85;21548;-51
2021/09/16 10:28:13;;;;;;;4.90;1.60;;;;;;;27.27;30.83;101886.70;1633063;88;21045;-50
2021/09/16 10:30:48;;;;;;;4.55;1.70;;;;;;;27.30;30.85;101886.50;1622502;88;21078;-46
2021/09/16 10:33:28;;;;;;;3.17;1.57;;;;;;;27.32;30.25;101885.91;1596498;89;21783;-47
2021/09/16 10:36:06;;;;;;;2.27;1.67;;;;;;;27.35;30.51;101888.36;1598394;89;21054;-46
2021/09/16 10:38:41;;;;;;;5.12;1.72;;;;;;;27.38;31.08;101884.14;1591425;89;21033;-48
2021/09/16 10:41:24;;;;;;;3.05;1.85;;;;;;;27.44;31.19;101880.63;1573180;91;21114;-46
2021/09/16 10:44:02;;;;;;;2.80;1.80;;;;;;;27.46;30.89;101870.67;1591647;89;21554;-47
2021/09/16 10:46:41;;;;;;;2.20;1.67;;;;;;;27.48;29.96;101872.74;1588875;89;21055;-45
2021/09/16 10:49:26;;;;;;;2.58;1.45;;;;;;;27.47;30.35;101874.55;1657138;86;21030;-49
2021/09/16 10:52:13;;;;;;;4.20;1.50;;;;;;;27.47;30.62;101872.39;1654485;86;21054;-46
2021/09/16 10:54:47;;;;;;;2.55;1.57;;;;;;;27.46;30.93;101874.20;1657034;86;21537;-54
2021/09/16 10:57:37;;;;;;;2.12;1.50;;;;;;;27.51;30.89;101873.87;1634393;88;21045;-51
2021/09/16 11:00:17;;;;;;;3.58;1.77;;;;;;;27.56;30.81;101873.02;1600987;89;21117;-47
2021/09/16 11:02:52;;;;;;;3.30;1.50;;;;;;;27.59;29.65;101866.12;1603661;89;21051;-50
2021/09/16 11:05:21;;;;;;;1.72;1.42;;;;;;;27.57;29.78;101873.41;1596825;89;21660;-51
2021/09/16 11:07:55;;;;;;;3.50;1.63;;;;;;;27.55;29.87;101873.53;1595359;89;21061;-49
2021/09/16 11:10:29;;;;;;;2.45;1.70;;;;;;;27.53;29.98;101874.13;1588255;89;21045;-46
2021/09/16 11:13:23;;;;;;;3.75;1.65;;;;;;;27.54;29.60;101868.27;1595460;89;21143;-48
2021/09/16 11:15:53;;;;;;;3.62;1.50;;;;;;;27.55;30.01;101869.52;1582576;89;21119;-50
2021/09/16 11:18:22;;;;;;;3.27;1.47;;;;;;;27.55;30.22;101865.98;1576110;90;21096;-46
2021/09/16 11:20:55;;;;;;;4.30;1.80;;;;;;;27.53;29.98;101860.77;1581840;90;21060;-46
2021/09/16 11:23:43;;;;;;;2.22;1.57;;;;;;;27.51;30.16;101861.84;1549295;92;21069;-49
2021/09/16 11:26:18;;;;;;;2.50;2.08;;;;;;;27.50;29.58;101854.77;1588469;89;21054;-48
2021/09/16 11:29:01;;;;;;;1.65;1.40;;;;;;;27.51;29.84;101856.48;1585515;89;21146;-49
2021/09/16 11:31:28;;;;;;;2.42;1.50;;;;;;;27.50;29.61;101849.42;1538625;92;21067;-50
2021/09/16 11:34:13;;;;;;;3.62;1.57;;;;;;;27.50;30.11;101853.43;1559758;90;21141;-47